sensor_id;sensor_type;location;lat;lon;timestamp;P1;durP1;ratioP1;P2;durP2;ratioP2
17420;SDS011;8828;48.800;9.540;2022-11-06T00:01:45;10.93;;;6.47;;
17420;SDS011;8828;48.800;9.540;2022-11-06T00:04:13;12.23;;;5.87;;
17420;SDS011;8828;48.800;9.540;2022-11-06T00:06:41;12.87;;;6.10;;
17420;SDS011;8828;48.800;9.540;2022-11-06T00:09:14;13.60;;;6.40;;
17420;SDS011;8828;48.800;9.540;2022-11-06T00:11:44;11.20;;;6.10;;
17420;SDS011;8828;48.800;9.540;2022-11-06T00:14:13;14.07;;;5.40;;
17420;SDS011;8828;48.800;9.540;2022-11-06T00:16:43;10.50;;;5.63;;
17420;SDS011;8828;48.800;9.540;2022-11-06T00:19:11;10.73;;;5.30;;
17420;SDS011;8828;48.800;9.540;2022-11-06T00:21:40;13.73;;;4.93;;
17420;SDS011;8828;48.800;9.540;2022-11-06T00:24:09;14.10;;;7.03;;
17420;SDS011;8828;48.800;9.540;2022-11-06T00:26:38;24.20;;;8.10;;
17420;SDS011;8828;48.800;9.540;2022-11-06T00:29:06;16.50;;;7.43;;
17420;SDS011;8828;48.800;9.540;2022-11-06T00:31:38;16.70;;;7.70;;
17420;SDS011;8828;48.800;9.540;2022-11-06T00:34:08;11.70;;;6.10;;
17420;SDS011;8828;48.800;9.540;2022-11-06T00:36:36;12.70;;;6.57;;
17420;SDS011;8828;48.800;9.540;2022-11-06T00:39:04;12.17;;;6.17;;
17420;SDS011;8828;48.800;9.540;2022-11-06T00:41:32;9.47;;;5.40;;
17420;SDS011;8828;48.800;9.540;2022-11-06T00:44:00;10.70;;;6.13;;
17420;SDS011;8828;48.800;9.540;2022-11-06T00:46:29;7.57;;;4.90;;
17420;SDS011;8828;48.800;9.540;2022-11-06T00:48:57;10.37;;;5.67;;
17420;SDS011;8828;48.800;9.540;2022-11-06T00:51:27;13.67;;;5.83;;
17420;SDS011;8828;48.800;9.540;2022-11-06T00:53:57;13.77;;;6.57;;
17420;SDS011;8828;48.800;9.540;2022-11-06T00:56:27;10.50;;;5.77;;
17420;SDS011;8828;48.800;9.540;2022-11-06T00:58:57;11.33;;;5.27;;
17420;SDS011;8828;48.800;9.540;2022-11-06T01:01:27;8.93;;;5.07;;
17420;SDS011;8828;48.800;9.540;2022-11-06T01:03:56;10.70;;;5.20;;
17420;SDS011;8828;48.800;9.540;2022-11-06T01:06:27;9.10;;;5.20;;
17420;SDS011;8828;48.800;9.540;2022-11-06T01:08:56;7.67;;;4.73;;
17420;SDS011;8828;48.800;9.540;2022-11-06T01:11:25;10.10;;;5.27;;
17420;SDS011;8828;48.800;9.540;2022-11-06T01:14:16;9.67;;;5.00;;
17420;SDS011;8828;48.800;9.540;2022-11-06T01:16:45;6.93;;;4.73;;
17420;SDS011;8828;48.800;9.540;2022-11-06T01:19:14;9.60;;;5.27;;
17420;SDS011;8828;48.800;9.540;2022-11-06T01:21:44;10.63;;;5.50;;
17420;SDS011;8828;48.800;9.540;2022-11-06T01:24:14;10.13;;;4.93;;
17420;SDS011;8828;48.800;9.540;2022-11-06T01:26:43;10.07;;;4.90;;
17420;SDS011;8828;48.800;9.540;2022-11-06T01:29:32;11.97;;;5.73;;
17420;SDS011;8828;48.800;9.540;2022-11-06T01:32:00;9.67;;;5.13;;
17420;SDS011;8828;48.800;9.540;2022-11-06T01:34:28;10.23;;;5.47;;
17420;SDS011;8828;48.800;9.540;2022-11-06T01:36:57;7.67;;;5.07;;
17420;SDS011;8828;48.800;9.540;2022-11-06T01:39:25;9.10;;;5.53;;
17420;SDS011;8828;48.800;9.540;2022-11-06T01:41:53;13.27;;;4.60;;
17420;SDS011;8828;48.800;9.540;2022-11-06T01:47:31;7.90;;;4.83;;
17420;SDS011;8828;48.800;9.540;2022-11-06T01:50:00;9.37;;;5.17;;
17420;SDS011;8828;48.800;9.540;2022-11-06T01:52:32;10.07;;;5.37;;
17420;SDS011;8828;48.800;9.540;2022-11-06T01:55:02;8.33;;;4.70;;
17420;SDS011;8828;48.800;9.540;2022-11-06T01:57:33;8.63;;;4.50;;
17420;SDS011;8828;48.800;9.540;2022-11-06T02:00:02;6.93;;;3.97;;
17420;SDS011;8828;48.800;9.540;2022-11-06T02:02:31;6.10;;;4.03;;
17420;SDS011;8828;48.800;9.540;2022-11-06T02:05:00;7.83;;;4.40;;
17420;SDS011;8828;48.800;9.540;2022-11-06T02:07:28;10.83;;;4.83;;
17420;SDS011;8828;48.800;9.540;2022-11-06T02:09:57;6.67;;;4.07;;
17420;SDS011;8828;48.800;9.540;2022-11-06T02:12:30;6.13;;;3.83;;
17420;SDS011;8828;48.800;9.540;2022-11-06T02:15:07;7.50;;;3.77;;
17420;SDS011;8828;48.800;9.540;2022-11-06T02:17:46;11.40;;;4.23;;
17420;SDS011;8828;48.800;9.540;2022-11-06T02:20:27;6.03;;;3.97;;
17420;SDS011;8828;48.800;9.540;2022-11-06T02:23:05;6.43;;;4.07;;
17420;SDS011;8828;48.800;9.540;2022-11-06T02:25:51;5.00;;;3.70;;
17420;SDS011;8828;48.800;9.540;2022-11-06T02:28:29;6.73;;;4.00;;
17420;SDS011;8828;48.800;9.540;2022-11-06T02:31:02;5.77;;;3.67;;
17420;SDS011;8828;48.800;9.540;2022-11-06T02:33:37;6.60;;;3.87;;
17420;SDS011;8828;48.800;9.540;2022-11-06T02:36:10;6.23;;;3.57;;
17420;SDS011;8828;48.800;9.540;2022-11-06T02:38:44;6.70;;;4.10;;
17420;SDS011;8828;48.800;9.540;2022-11-06T02:41:17;5.27;;;3.43;;
17420;SDS011;8828;48.800;9.540;2022-11-06T02:43:50;5.30;;;3.20;;
17420;SDS011;8828;48.800;9.540;2022-11-06T02:46:21;8.30;;;3.80;;
17420;SDS011;8828;48.800;9.540;2022-11-06T02:48:55;5.57;;;3.40;;
17420;SDS011;8828;48.800;9.540;2022-11-06T02:51:27;4.97;;;3.00;;
17420;SDS011;8828;48.800;9.540;2022-11-06T02:53:58;4.07;;;2.80;;
17420;SDS011;8828;48.800;9.540;2022-11-06T02:56:30;11.07;;;3.53;;
17420;SDS011;8828;48.800;9.540;2022-11-06T02:59:04;4.73;;;3.20;;
17420;SDS011;8828;48.800;9.540;2022-11-06T03:01:36;4.77;;;3.63;;
17420;SDS011;8828;48.800;9.540;2022-11-06T03:04:09;4.20;;;3.37;;
17420;SDS011;8828;48.800;9.540;2022-11-06T03:06:42;4.20;;;2.87;;
17420;SDS011;8828;48.800;9.540;2022-11-06T03:09:16;4.57;;;3.07;;
17420;SDS011;8828;48.800;9.540;2022-11-06T03:11:48;5.10;;;3.10;;
17420;SDS011;8828;48.800;9.540;2022-11-06T03:14:26;4.87;;;2.87;;
17420;SDS011;8828;48.800;9.540;2022-11-06T03:16:58;8.23;;;3.23;;
17420;SDS011;8828;48.800;9.540;2022-11-06T03:19:28;4.57;;;3.17;;
17420;SDS011;8828;48.800;9.540;2022-11-06T03:22:01;8.37;;;3.40;;
17420;SDS011;8828;48.800;9.540;2022-11-06T03:24:37;4.10;;;2.90;;
17420;SDS011;8828;48.800;9.540;2022-11-06T03:27:11;6.17;;;2.93;;
17420;SDS011;8828;48.800;9.540;2022-11-06T03:29:46;4.03;;;2.67;;
17420;SDS011;8828;48.800;9.540;2022-11-06T03:32:19;4.37;;;2.83;;
17420;SDS011;8828;48.800;9.540;2022-11-06T03:34:54;4.63;;;2.80;;
17420;SDS011;8828;48.800;9.540;2022-11-06T03:37:32;4.17;;;2.63;;
17420;SDS011;8828;48.800;9.540;2022-11-06T03:40:04;3.73;;;2.70;;
17420;SDS011;8828;48.800;9.540;2022-11-06T03:42:38;3.67;;;2.57;;
17420;SDS011;8828;48.800;9.540;2022-11-06T03:45:09;4.60;;;2.80;;
17420;SDS011;8828;48.800;9.540;2022-11-06T03:47:41;3.40;;;2.50;;
17420;SDS011;8828;48.800;9.540;2022-11-06T03:50:14;10.77;;;2.90;;
17420;SDS011;8828;48.800;9.540;2022-11-06T03:52:45;4.80;;;2.67;;
17420;SDS011;8828;48.800;9.540;2022-11-06T03:55:20;5.67;;;3.20;;
17420;SDS011;8828;48.800;9.540;2022-11-06T03:57:51;7.77;;;2.87;;
17420;SDS011;8828;48.800;9.540;2022-11-06T04:00:24;5.33;;;3.00;;
17420;SDS011;8828;48.800;9.540;2022-11-06T04:02:53;4.90;;;2.67;;
17420;SDS011;8828;48.800;9.540;2022-11-06T04:05:30;6.83;;;3.10;;
17420;SDS011;8828;48.800;9.540;2022-11-06T04:08:03;4.90;;;2.87;;
17420;SDS011;8828;48.800;9.540;2022-11-06T04:10:52;4.97;;;3.13;;
17420;SDS011;8828;48.800;9.540;2022-11-06T04:13:41;3.47;;;2.40;;
17420;SDS011;8828;48.800;9.540;2022-11-06T04:16:30;6.97;;;3.03;;
17420;SDS011;8828;48.800;9.540;2022-11-06T04:19:01;4.63;;;3.00;;
17420;SDS011;8828;48.800;9.540;2022-11-06T04:21:32;4.17;;;2.80;;
17420;SDS011;8828;48.800;9.540;2022-11-06T04:24:12;4.30;;;2.80;;
17420;SDS011;8828;48.800;9.540;2022-11-06T04:27:13;4.17;;;2.70;;
17420;SDS011;8828;48.800;9.540;2022-11-06T04:29:55;3.60;;;2.70;;
17420;SDS011;8828;48.800;9.540;2022-11-06T04:32:35;5.63;;;3.20;;
17420;SDS011;8828;48.800;9.540;2022-11-06T04:35:14;4.13;;;2.87;;
17420;SDS011;8828;48.800;9.540;2022-11-06T04:37:51;7.50;;;2.63;;
17420;SDS011;8828;48.800;9.540;2022-11-06T04:40:25;5.30;;;2.87;;
17420;SDS011;8828;48.800;9.540;2022-11-06T04:43:00;6.50;;;2.87;;
17420;SDS011;8828;48.800;9.540;2022-11-06T04:45:33;9.00;;;2.80;;
17420;SDS011;8828;48.800;9.540;2022-11-06T04:48:06;8.93;;;3.07;;
17420;SDS011;8828;48.800;9.540;2022-11-06T04:50:38;4.80;;;3.33;;
17420;SDS011;8828;48.800;9.540;2022-11-06T04:53:08;4.37;;;2.87;;
17420;SDS011;8828;48.800;9.540;2022-11-06T04:55:37;4.03;;;2.80;;
17420;SDS011;8828;48.800;9.540;2022-11-06T04:58:11;4.23;;;2.63;;
17420;SDS011;8828;48.800;9.540;2022-11-06T05:00:41;4.77;;;2.70;;
17420;SDS011;8828;48.800;9.540;2022-11-06T05:03:13;10.10;;;2.70;;
17420;SDS011;8828;48.800;9.540;2022-11-06T05:05:42;4.30;;;2.47;;
17420;SDS011;8828;48.800;9.540;2022-11-06T05:08:11;4.77;;;2.60;;
17420;SDS011;8828;48.800;9.540;2022-11-06T05:10:41;4.60;;;2.67;;
17420;SDS011;8828;48.800;9.540;2022-11-06T05:13:10;3.97;;;2.43;;
17420;SDS011;8828;48.800;9.540;2022-11-06T05:15:38;3.27;;;2.57;;
17420;SDS011;8828;48.800;9.540;2022-11-06T05:18:06;3.70;;;2.50;;
17420;SDS011;8828;48.800;9.540;2022-11-06T05:20:36;3.87;;;2.53;;
17420;SDS011;8828;48.800;9.540;2022-11-06T05:23:04;4.20;;;2.80;;
17420;SDS011;8828;48.800;9.540;2022-11-06T05:25:32;3.70;;;2.43;;
17420;SDS011;8828;48.800;9.540;2022-11-06T05:28:02;4.70;;;2.73;;
17420;SDS011;8828;48.800;9.540;2022-11-06T05:30:32;4.67;;;3.13;;
17420;SDS011;8828;48.800;9.540;2022-11-06T05:33:01;5.53;;;2.70;;
17420;SDS011;8828;48.800;9.540;2022-11-06T05:35:29;6.97;;;3.17;;
17420;SDS011;8828;48.800;9.540;2022-11-06T05:37:59;4.83;;;3.10;;
17420;SDS011;8828;48.800;9.540;2022-11-06T05:40:27;3.80;;;2.90;;
17420;SDS011;8828;48.800;9.540;2022-11-06T05:42:55;4.73;;;2.40;;
17420;SDS011;8828;48.800;9.540;2022-11-06T05:45:23;4.70;;;2.70;;
17420;SDS011;8828;48.800;9.540;2022-11-06T05:47:51;4.13;;;2.57;;
17420;SDS011;8828;48.800;9.540;2022-11-06T05:50:19;4.90;;;2.80;;
17420;SDS011;8828;48.800;9.540;2022-11-06T05:52:47;3.13;;;2.30;;
17420;SDS011;8828;48.800;9.540;2022-11-06T05:55:16;4.67;;;2.70;;
17420;SDS011;8828;48.800;9.540;2022-11-06T05:57:44;9.63;;;2.70;;
17420;SDS011;8828;48.800;9.540;2022-11-06T06:00:13;5.60;;;2.53;;
17420;SDS011;8828;48.800;9.540;2022-11-06T06:02:41;10.73;;;2.30;;
17420;SDS011;8828;48.800;9.540;2022-11-06T06:05:09;5.23;;;2.77;;
17420;SDS011;8828;48.800;9.540;2022-11-06T06:07:37;5.20;;;2.87;;
17420;SDS011;8828;48.800;9.540;2022-11-06T06:10:05;5.40;;;3.27;;
17420;SDS011;8828;48.800;9.540;2022-11-06T06:12:35;4.30;;;3.30;;
17420;SDS011;8828;48.800;9.540;2022-11-06T06:15:04;5.97;;;3.27;;
17420;SDS011;8828;48.800;9.540;2022-11-06T06:17:33;4.80;;;3.20;;
17420;SDS011;8828;48.800;9.540;2022-11-06T06:20:01;4.43;;;3.00;;
17420;SDS011;8828;48.800;9.540;2022-11-06T06:22:29;6.73;;;2.80;;
17420;SDS011;8828;48.800;9.540;2022-11-06T06:24:57;3.90;;;2.80;;
17420;SDS011;8828;48.800;9.540;2022-11-06T06:27:25;4.00;;;2.60;;
17420;SDS011;8828;48.800;9.540;2022-11-06T06:29:54;7.50;;;2.83;;
17420;SDS011;8828;48.800;9.540;2022-11-06T06:32:22;4.23;;;3.13;;
17420;SDS011;8828;48.800;9.540;2022-11-06T06:34:50;6.80;;;3.20;;
17420;SDS011;8828;48.800;9.540;2022-11-06T06:37:18;11.50;;;3.13;;
17420;SDS011;8828;48.800;9.540;2022-11-06T06:39:46;3.83;;;2.40;;
17420;SDS011;8828;48.800;9.540;2022-11-06T06:42:14;5.03;;;2.83;;
17420;SDS011;8828;48.800;9.540;2022-11-06T06:44:41;6.70;;;2.77;;
17420;SDS011;8828;48.800;9.540;2022-11-06T06:47:11;7.90;;;3.07;;
17420;SDS011;8828;48.800;9.540;2022-11-06T06:49:41;13.20;;;2.73;;
17420;SDS011;8828;48.800;9.540;2022-11-06T06:52:09;5.03;;;2.77;;
17420;SDS011;8828;48.800;9.540;2022-11-06T06:54:38;4.90;;;2.80;;
17420;SDS011;8828;48.800;9.540;2022-11-06T06:57:06;7.53;;;3.27;;
17420;SDS011;8828;48.800;9.540;2022-11-06T06:59:34;9.40;;;3.03;;
17420;SDS011;8828;48.800;9.540;2022-11-06T07:02:02;5.07;;;3.47;;
17420;SDS011;8828;48.800;9.540;2022-11-06T07:04:32;4.80;;;3.07;;
17420;SDS011;8828;48.800;9.540;2022-11-06T07:07:00;3.53;;;2.60;;
17420;SDS011;8828;48.800;9.540;2022-11-06T07:09:29;8.03;;;2.83;;
17420;SDS011;8828;48.800;9.540;2022-11-06T07:11:57;4.60;;;2.80;;
17420;SDS011;8828;48.800;9.540;2022-11-06T07:14:25;3.87;;;2.93;;
17420;SDS011;8828;48.800;9.540;2022-11-06T07:16:53;5.20;;;3.07;;
17420;SDS011;8828;48.800;9.540;2022-11-06T07:19:21;3.60;;;2.40;;
17420;SDS011;8828;48.800;9.540;2022-11-06T07:21:51;4.70;;;2.87;;
17420;SDS011;8828;48.800;9.540;2022-11-06T07:24:19;5.23;;;3.30;;
17420;SDS011;8828;48.800;9.540;2022-11-06T07:26:46;4.40;;;2.90;;
17420;SDS011;8828;48.800;9.540;2022-11-06T07:29:15;3.77;;;2.57;;
17420;SDS011;8828;48.800;9.540;2022-11-06T07:31:42;4.23;;;3.10;;
17420;SDS011;8828;48.800;9.540;2022-11-06T07:34:10;5.07;;;3.07;;
17420;SDS011;8828;48.800;9.540;2022-11-06T07:36:38;3.93;;;2.90;;
17420;SDS011;8828;48.800;9.540;2022-11-06T07:39:08;3.83;;;2.57;;
17420;SDS011;8828;48.800;9.540;2022-11-06T07:41:35;3.87;;;2.77;;
17420;SDS011;8828;48.800;9.540;2022-11-06T07:44:03;15.17;;;7.63;;
17420;SDS011;8828;48.800;9.540;2022-11-06T07:46:31;24.97;;;11.63;;
17420;SDS011;8828;48.800;9.540;2022-11-06T07:48:59;8.60;;;4.80;;
17420;SDS011;8828;48.800;9.540;2022-11-06T07:51:28;4.47;;;2.80;;
17420;SDS011;8828;48.800;9.540;2022-11-06T07:53:56;3.73;;;2.80;;
17420;SDS011;8828;48.800;9.540;2022-11-06T07:56:25;4.07;;;2.97;;
17420;SDS011;8828;48.800;9.540;2022-11-06T07:58:53;4.97;;;3.33;;
17420;SDS011;8828;48.800;9.540;2022-11-06T08:01:21;4.50;;;2.90;;
17420;SDS011;8828;48.800;9.540;2022-11-06T08:03:49;3.87;;;2.80;;
17420;SDS011;8828;48.800;9.540;2022-11-06T08:06:17;4.23;;;2.67;;
17420;SDS011;8828;48.800;9.540;2022-11-06T08:08:44;4.03;;;2.80;;
17420;SDS011;8828;48.800;9.540;2022-11-06T08:11:13;4.33;;;2.80;;
17420;SDS011;8828;48.800;9.540;2022-11-06T08:13:42;5.97;;;3.00;;
17420;SDS011;8828;48.800;9.540;2022-11-06T08:16:10;5.50;;;3.23;;
17420;SDS011;8828;48.800;9.540;2022-11-06T08:18:40;4.13;;;3.30;;
17420;SDS011;8828;48.800;9.540;2022-11-06T08:21:08;6.27;;;3.83;;
17420;SDS011;8828;48.800;9.540;2022-11-06T08:23:36;5.37;;;3.70;;
17420;SDS011;8828;48.800;9.540;2022-11-06T08:26:04;8.00;;;4.53;;
17420;SDS011;8828;48.800;9.540;2022-11-06T08:28:33;7.40;;;4.90;;
17420;SDS011;8828;48.800;9.540;2022-11-06T08:31:05;5.97;;;3.90;;
17420;SDS011;8828;48.800;9.540;2022-11-06T08:33:34;6.50;;;3.97;;
17420;SDS011;8828;48.800;9.540;2022-11-06T08:36:04;9.93;;;6.80;;
17420;SDS011;8828;48.800;9.540;2022-11-06T08:38:33;16.63;;;8.60;;
17420;SDS011;8828;48.800;9.540;2022-11-06T08:41:03;10.10;;;5.50;;
17420;SDS011;8828;48.800;9.540;2022-11-06T08:43:31;8.17;;;5.43;;
17420;SDS011;8828;48.800;9.540;2022-11-06T08:45:59;9.00;;;5.00;;
17420;SDS011;8828;48.800;9.540;2022-11-06T08:48:31;7.47;;;5.20;;
17420;SDS011;8828;48.800;9.540;2022-11-06T08:50:59;7.97;;;5.37;;
17420;SDS011;8828;48.800;9.540;2022-11-06T08:53:27;8.83;;;4.80;;
17420;SDS011;8828;48.800;9.540;2022-11-06T08:55:55;9.37;;;5.63;;
17420;SDS011;8828;48.800;9.540;2022-11-06T08:58:23;12.50;;;5.00;;
17420;SDS011;8828;48.800;9.540;2022-11-06T09:00:51;8.80;;;5.57;;
17420;SDS011;8828;48.800;9.540;2022-11-06T09:03:19;9.67;;;5.17;;
17420;SDS011;8828;48.800;9.540;2022-11-06T09:05:48;9.17;;;5.60;;
17420;SDS011;8828;48.800;9.540;2022-11-06T09:08:16;8.93;;;5.67;;
17420;SDS011;8828;48.800;9.540;2022-11-06T09:10:44;8.77;;;5.50;;
17420;SDS011;8828;48.800;9.540;2022-11-06T09:13:12;8.97;;;5.37;;
17420;SDS011;8828;48.800;9.540;2022-11-06T09:15:40;8.50;;;5.13;;
17420;SDS011;8828;48.800;9.540;2022-11-06T09:18:09;8.80;;;5.50;;
17420;SDS011;8828;48.800;9.540;2022-11-06T09:20:37;11.90;;;6.70;;
17420;SDS011;8828;48.800;9.540;2022-11-06T09:23:07;8.07;;;5.67;;
17420;SDS011;8828;48.800;9.540;2022-11-06T09:25:36;6.77;;;4.87;;
17420;SDS011;8828;48.800;9.540;2022-11-06T09:28:03;7.17;;;5.10;;
17420;SDS011;8828;48.800;9.540;2022-11-06T09:30:31;7.57;;;4.77;;
17420;SDS011;8828;48.800;9.540;2022-11-06T09:33:00;7.97;;;5.23;;
17420;SDS011;8828;48.800;9.540;2022-11-06T09:35:29;7.23;;;4.67;;
17420;SDS011;8828;48.800;9.540;2022-11-06T09:38:01;6.57;;;4.60;;
17420;SDS011;8828;48.800;9.540;2022-11-06T09:40:31;5.03;;;4.03;;
17420;SDS011;8828;48.800;9.540;2022-11-06T09:43:15;6.57;;;4.20;;
17420;SDS011;8828;48.800;9.540;2022-11-06T09:46:17;5.53;;;4.20;;
17420;SDS011;8828;48.800;9.540;2022-11-06T09:48:49;5.83;;;4.60;;
17420;SDS011;8828;48.800;9.540;2022-11-06T09:51:25;8.70;;;5.80;;
17420;SDS011;8828;48.800;9.540;2022-11-06T09:54:00;8.97;;;6.17;;
17420;SDS011;8828;48.800;9.540;2022-11-06T09:56:33;6.80;;;4.73;;
17420;SDS011;8828;48.800;9.540;2022-11-06T09:59:04;6.93;;;4.80;;
17420;SDS011;8828;48.800;9.540;2022-11-06T10:01:39;7.57;;;5.20;;
17420;SDS011;8828;48.800;9.540;2022-11-06T10:04:13;6.70;;;4.60;;
17420;SDS011;8828;48.800;9.540;2022-11-06T10:06:50;7.43;;;4.63;;
17420;SDS011;8828;48.800;9.540;2022-11-06T10:09:18;7.53;;;4.37;;
17420;SDS011;8828;48.800;9.540;2022-11-06T10:11:50;6.70;;;4.73;;
17420;SDS011;8828;48.800;9.540;2022-11-06T10:14:30;7.27;;;4.60;;
17420;SDS011;8828;48.800;9.540;2022-11-06T10:17:12;6.10;;;4.13;;
17420;SDS011;8828;48.800;9.540;2022-11-06T10:19:47;5.03;;;3.60;;
17420;SDS011;8828;48.800;9.540;2022-11-06T10:22:22;8.87;;;6.20;;
17420;SDS011;8828;48.800;9.540;2022-11-06T10:24:58;4.20;;;2.77;;
17420;SDS011;8828;48.800;9.540;2022-11-06T10:27:35;4.07;;;2.70;;
17420;SDS011;8828;48.800;9.540;2022-11-06T10:30:08;3.50;;;2.60;;
17420;SDS011;8828;48.800;9.540;2022-11-06T10:32:47;3.47;;;2.60;;
17420;SDS011;8828;48.800;9.540;2022-11-06T10:35:24;2.97;;;2.30;;
17420;SDS011;8828;48.800;9.540;2022-11-06T10:37:58;5.17;;;2.20;;
17420;SDS011;8828;48.800;9.540;2022-11-06T10:40:31;3.60;;;2.60;;
17420;SDS011;8828;48.800;9.540;2022-11-06T10:43:04;2.23;;;1.97;;
17420;SDS011;8828;48.800;9.540;2022-11-06T10:45:38;7.50;;;4.33;;
17420;SDS011;8828;48.800;9.540;2022-11-06T10:48:18;2.77;;;1.97;;
17420;SDS011;8828;48.800;9.540;2022-11-06T10:50:58;2.77;;;1.77;;
17420;SDS011;8828;48.800;9.540;2022-11-06T10:53:43;2.67;;;2.03;;
17420;SDS011;8828;48.800;9.540;2022-11-06T10:56:28;3.10;;;2.17;;
17420;SDS011;8828;48.800;9.540;2022-11-06T10:59:07;2.50;;;1.93;;
17420;SDS011;8828;48.800;9.540;2022-11-06T11:01:35;2.40;;;1.77;;
17420;SDS011;8828;48.800;9.540;2022-11-06T11:04:04;3.20;;;1.93;;
17420;SDS011;8828;48.800;9.540;2022-11-06T11:06:32;2.40;;;1.67;;
17420;SDS011;8828;48.800;9.540;2022-11-06T11:09:00;3.10;;;1.83;;
17420;SDS011;8828;48.800;9.540;2022-11-06T11:11:29;3.20;;;2.17;;
17420;SDS011;8828;48.800;9.540;2022-11-06T11:16:50;2.33;;;1.80;;
17420;SDS011;8828;48.800;9.540;2022-11-06T11:19:22;2.27;;;1.73;;
17420;SDS011;8828;48.800;9.540;2022-11-06T11:22:00;2.73;;;2.03;;
17420;SDS011;8828;48.800;9.540;2022-11-06T11:24:30;2.43;;;1.77;;
17420;SDS011;8828;48.800;9.540;2022-11-06T11:26:58;3.23;;;1.93;;
17420;SDS011;8828;48.800;9.540;2022-11-06T11:29:30;2.77;;;1.90;;
17420;SDS011;8828;48.800;9.540;2022-11-06T11:32:00;11.53;;;7.20;;
17420;SDS011;8828;48.800;9.540;2022-11-06T11:34:33;11.47;;;6.10;;
17420;SDS011;8828;48.800;9.540;2022-11-06T11:37:08;2.93;;;2.00;;
17420;SDS011;8828;48.800;9.540;2022-11-06T11:39:49;2.23;;;1.57;;
17420;SDS011;8828;48.800;9.540;2022-11-06T11:42:22;2.63;;;2.00;;
17420;SDS011;8828;48.800;9.540;2022-11-06T11:45:09;2.43;;;2.00;;
17420;SDS011;8828;48.800;9.540;2022-11-06T11:47:39;2.37;;;1.77;;
17420;SDS011;8828;48.800;9.540;2022-11-06T11:50:18;2.30;;;1.90;;
17420;SDS011;8828;48.800;9.540;2022-11-06T11:52:54;4.87;;;3.27;;
17420;SDS011;8828;48.800;9.540;2022-11-06T11:55:28;6.13;;;3.17;;
17420;SDS011;8828;48.800;9.540;2022-11-06T11:57:57;1.70;;;1.53;;
17420;SDS011;8828;48.800;9.540;2022-11-06T12:00:28;2.80;;;1.97;;
17420;SDS011;8828;48.800;9.540;2022-11-06T12:02:57;2.97;;;2.10;;
17420;SDS011;8828;48.800;9.540;2022-11-06T12:05:30;2.43;;;2.07;;
17420;SDS011;8828;48.800;9.540;2022-11-06T12:08:01;2.87;;;1.97;;
17420;SDS011;8828;48.800;9.540;2022-11-06T12:10:31;3.50;;;2.23;;
17420;SDS011;8828;48.800;9.540;2022-11-06T12:13:01;2.90;;;2.03;;
17420;SDS011;8828;48.800;9.540;2022-11-06T12:15:36;2.43;;;1.90;;
17420;SDS011;8828;48.800;9.540;2022-11-06T12:18:10;2.67;;;2.20;;
17420;SDS011;8828;48.800;9.540;2022-11-06T12:20:41;2.90;;;2.20;;
17420;SDS011;8828;48.800;9.540;2022-11-06T12:23:16;3.10;;;2.20;;
17420;SDS011;8828;48.800;9.540;2022-11-06T12:25:52;2.70;;;2.13;;
17420;SDS011;8828;48.800;9.540;2022-11-06T12:28:24;3.67;;;2.40;;
17420;SDS011;8828;48.800;9.540;2022-11-06T12:30:57;3.07;;;2.20;;
17420;SDS011;8828;48.800;9.540;2022-11-06T12:33:30;3.13;;;2.00;;
17420;SDS011;8828;48.800;9.540;2022-11-06T12:36:19;3.67;;;2.20;;
17420;SDS011;8828;48.800;9.540;2022-11-06T12:38:51;2.70;;;2.20;;
17420;SDS011;8828;48.800;9.540;2022-11-06T12:41:24;3.00;;;2.37;;
17420;SDS011;8828;48.800;9.540;2022-11-06T12:43:55;2.63;;;2.00;;
17420;SDS011;8828;48.800;9.540;2022-11-06T12:46:34;2.67;;;2.03;;
17420;SDS011;8828;48.800;9.540;2022-11-06T12:49:14;3.10;;;2.07;;
17420;SDS011;8828;48.800;9.540;2022-11-06T12:51:57;3.43;;;2.23;;
17420;SDS011;8828;48.800;9.540;2022-11-06T12:54:43;3.00;;;2.00;;
17420;SDS011;8828;48.800;9.540;2022-11-06T12:57:22;2.73;;;1.97;;
17420;SDS011;8828;48.800;9.540;2022-11-06T13:00:00;2.50;;;2.00;;
17420;SDS011;8828;48.800;9.540;2022-11-06T13:05:29;3.00;;;2.30;;
17420;SDS011;8828;48.800;9.540;2022-11-06T13:08:08;2.23;;;1.63;;
17420;SDS011;8828;48.800;9.540;2022-11-06T13:10:46;2.70;;;2.10;;
17420;SDS011;8828;48.800;9.540;2022-11-06T13:13:27;2.00;;;1.67;;
17420;SDS011;8828;48.800;9.540;2022-11-06T13:16:10;2.47;;;1.60;;
17420;SDS011;8828;48.800;9.540;2022-11-06T13:18:47;2.93;;;2.13;;
17420;SDS011;8828;48.800;9.540;2022-11-06T13:21:20;3.00;;;1.90;;
17420;SDS011;8828;48.800;9.540;2022-11-06T13:23:57;2.63;;;2.10;;
17420;SDS011;8828;48.800;9.540;2022-11-06T13:26:31;4.60;;;3.10;;
17420;SDS011;8828;48.800;9.540;2022-11-06T13:29:03;3.30;;;2.03;;
17420;SDS011;8828;48.800;9.540;2022-11-06T13:31:36;2.73;;;2.27;;
17420;SDS011;8828;48.800;9.540;2022-11-06T13:34:11;3.10;;;2.13;;
17420;SDS011;8828;48.800;9.540;2022-11-06T13:36:44;2.87;;;2.20;;
17420;SDS011;8828;48.800;9.540;2022-11-06T13:39:14;4.13;;;2.27;;
17420;SDS011;8828;48.800;9.540;2022-11-06T13:41:47;3.37;;;2.40;;
17420;SDS011;8828;48.800;9.540;2022-11-06T13:44:17;3.57;;;2.40;;
17420;SDS011;8828;48.800;9.540;2022-11-06T13:46:48;3.67;;;2.20;;
17420;SDS011;8828;48.800;9.540;2022-11-06T13:49:26;4.63;;;2.83;;
17420;SDS011;8828;48.800;9.540;2022-11-06T13:51:58;11.17;;;6.07;;
17420;SDS011;8828;48.800;9.540;2022-11-06T13:54:32;4.07;;;2.73;;
17420;SDS011;8828;48.800;9.540;2022-11-06T13:57:21;3.73;;;2.23;;
17420;SDS011;8828;48.800;9.540;2022-11-06T14:00:13;2.73;;;2.13;;
17420;SDS011;8828;48.800;9.540;2022-11-06T14:02:54;3.70;;;2.43;;
17420;SDS011;8828;48.800;9.540;2022-11-06T14:05:56;2.90;;;2.20;;
17420;SDS011;8828;48.800;9.540;2022-11-06T14:08:28;4.57;;;2.83;;
17420;SDS011;8828;48.800;9.540;2022-11-06T14:10:59;3.50;;;2.50;;
17420;SDS011;8828;48.800;9.540;2022-11-06T14:13:32;3.70;;;2.33;;
17420;SDS011;8828;48.800;9.540;2022-11-06T14:16:03;4.70;;;2.80;;
17420;SDS011;8828;48.800;9.540;2022-11-06T14:18:33;3.57;;;2.50;;
17420;SDS011;8828;48.800;9.540;2022-11-06T14:27:05;3.73;;;2.70;;
17420;SDS011;8828;48.800;9.540;2022-11-06T14:32:34;3.90;;;2.70;;
17420;SDS011;8828;48.800;9.540;2022-11-06T14:35:29;3.23;;;2.37;;
17420;SDS011;8828;48.800;9.540;2022-11-06T14:38:30;6.40;;;3.43;;
17420;SDS011;8828;48.800;9.540;2022-11-06T14:41:00;5.83;;;3.70;;
17420;SDS011;8828;48.800;9.540;2022-11-06T14:43:29;4.20;;;2.80;;
17420;SDS011;8828;48.800;9.540;2022-11-06T14:45:59;3.53;;;2.50;;
17420;SDS011;8828;48.800;9.540;2022-11-06T14:48:30;4.47;;;2.90;;
17420;SDS011;8828;48.800;9.540;2022-11-06T14:51:00;4.27;;;3.23;;
17420;SDS011;8828;48.800;9.540;2022-11-06T14:53:33;4.83;;;3.00;;
17420;SDS011;8828;48.800;9.540;2022-11-06T14:56:05;5.30;;;2.90;;
17420;SDS011;8828;48.800;9.540;2022-11-06T14:58:35;4.67;;;2.70;;
17420;SDS011;8828;48.800;9.540;2022-11-06T15:01:11;6.23;;;3.10;;
17420;SDS011;8828;48.800;9.540;2022-11-06T15:03:42;4.63;;;3.17;;
17420;SDS011;8828;48.800;9.540;2022-11-06T15:06:20;6.27;;;3.17;;
17420;SDS011;8828;48.800;9.540;2022-11-06T15:09:05;4.67;;;3.17;;
17420;SDS011;8828;48.800;9.540;2022-11-06T15:11:57;5.57;;;3.33;;
17420;SDS011;8828;48.800;9.540;2022-11-06T15:17:31;4.23;;;3.10;;
17420;SDS011;8828;48.800;9.540;2022-11-06T15:20:12;5.13;;;3.47;;
17420;SDS011;8828;48.800;9.540;2022-11-06T15:23:06;4.63;;;2.90;;
17420;SDS011;8828;48.800;9.540;2022-11-06T15:25:46;12.87;;;6.80;;
17420;SDS011;8828;48.800;9.540;2022-11-06T15:28:18;7.97;;;4.60;;
17420;SDS011;8828;48.800;9.540;2022-11-06T15:30:49;4.70;;;3.47;;
17420;SDS011;8828;48.800;9.540;2022-11-06T15:33:24;5.00;;;3.37;;
17420;SDS011;8828;48.800;9.540;2022-11-06T15:35:57;4.27;;;3.20;;
17420;SDS011;8828;48.800;9.540;2022-11-06T15:38:36;4.67;;;3.20;;
17420;SDS011;8828;48.800;9.540;2022-11-06T15:41:06;5.90;;;3.30;;
17420;SDS011;8828;48.800;9.540;2022-11-06T15:43:38;5.00;;;3.20;;
17420;SDS011;8828;48.800;9.540;2022-11-06T15:46:20;3.80;;;3.10;;
17420;SDS011;8828;48.800;9.540;2022-11-06T15:49:04;4.53;;;3.20;;
17420;SDS011;8828;48.800;9.540;2022-11-06T15:51:36;5.93;;;3.87;;
17420;SDS011;8828;48.800;9.540;2022-11-06T15:54:10;5.30;;;3.67;;